sensor_id;sensor_type;location;lat;lon;timestamp;P1;durP1;ratioP1;P2;durP2;ratioP2
62947;SDS011;51940;52.126;-0.994;2022-09-12T00:00:28;14.50;;;10.60;;
62947;SDS011;51940;52.126;-0.994;2022-09-12T00:02:56;12.10;;;9.70;;
62947;SDS011;51940;52.126;-0.994;2022-09-12T00:05:23;12.90;;;10.10;;
62947;SDS011;51940;52.126;-0.994;2022-09-12T00:07:49;16.30;;;10.80;;
62947;SDS011;51940;52.126;-0.994;2022-09-12T00:10:15;13.60;;;10.20;;
62947;SDS011;51940;52.126;-0.994;2022-09-12T00:12:41;13.20;;;10.10;;
62947;SDS011;51940;52.126;-0.994;2022-09-12T00:15:06;11.80;;;9.80;;
62947;SDS011;51940;52.126;-0.994;2022-09-12T00:17:33;14.30;;;10.20;;
62947;SDS011;51940;52.126;-0.994;2022-09-12T00:19:59;14.70;;;10.40;;
62947;SDS011;51940;52.126;-0.994;2022-09-12T00:22:24;14.10;;;10.70;;
62947;SDS011;51940;52.126;-0.994;2022-09-12T00:24:50;16.20;;;11.60;;
62947;SDS011;51940;52.126;-0.994;2022-09-12T00:27:15;14.40;;;10.80;;
62947;SDS011;51940;52.126;-0.994;2022-09-12T00:29:41;16.80;;;11.30;;
62947;SDS011;51940;52.126;-0.994;2022-09-12T00:32:06;16.80;;;11.20;;
62947;SDS011;51940;52.126;-0.994;2022-09-12T00:34:32;15.80;;;10.70;;
62947;SDS011;51940;52.126;-0.994;2022-09-12T00:36:57;14.00;;;11.00;;
62947;SDS011;51940;52.126;-0.994;2022-09-12T00:39:23;16.30;;;11.80;;
62947;SDS011;51940;52.126;-0.994;2022-09-12T00:41:48;15.60;;;11.80;;
62947;SDS011;51940;52.126;-0.994;2022-09-12T00:50:07;17.00;;;11.80;;
62947;SDS011;51940;52.126;-0.994;2022-09-12T00:52:39;18.50;;;12.30;;
62947;SDS011;51940;52.126;-0.994;2022-09-12T01:00:14;19.40;;;12.60;;
62947;SDS011;51940;52.126;-0.994;2022-09-12T01:02:44;15.20;;;11.40;;
62947;SDS011;51940;52.126;-0.994;2022-09-12T01:05:13;18.40;;;12.30;;
62947;SDS011;51940;52.126;-0.994;2022-09-12T01:07:39;20.70;;;12.70;;
62947;SDS011;51940;52.126;-0.994;2022-09-12T01:10:06;19.50;;;13.00;;
62947;SDS011;51940;52.126;-0.994;2022-09-12T01:12:33;20.00;;;13.60;;
62947;SDS011;51940;52.126;-0.994;2022-09-12T01:15:03;19.70;;;13.10;;
62947;SDS011;51940;52.126;-0.994;2022-09-12T01:17:31;20.10;;;13.60;;
62947;SDS011;51940;52.126;-0.994;2022-09-12T01:31:06;19.40;;;13.60;;
62947;SDS011;51940;52.126;-0.994;2022-09-12T01:33:52;18.40;;;13.70;;
62947;SDS011;51940;52.126;-0.994;2022-09-12T01:38:59;23.60;;;14.20;;
62947;SDS011;51940;52.126;-0.994;2022-09-12T01:41:42;20.60;;;14.30;;
62947;SDS011;51940;52.126;-0.994;2022-09-12T01:44:45;19.20;;;14.00;;
62947;SDS011;51940;52.126;-0.994;2022-09-12T01:47:35;20.60;;;13.90;;
62947;SDS011;51940;52.126;-0.994;2022-09-12T01:50:26;19.20;;;13.30;;
62947;SDS011;51940;52.126;-0.994;2022-09-12T01:53:01;21.80;;;14.40;;
62947;SDS011;51940;52.126;-0.994;2022-09-12T01:55:54;23.00;;;14.80;;
62947;SDS011;51940;52.126;-0.994;2022-09-12T01:58:22;20.60;;;13.70;;
62947;SDS011;51940;52.126;-0.994;2022-09-12T02:03:33;22.90;;;13.80;;
62947;SDS011;51940;52.126;-0.994;2022-09-12T02:06:08;21.00;;;14.50;;
62947;SDS011;51940;52.126;-0.994;2022-09-12T02:11:33;18.70;;;13.00;;
62947;SDS011;51940;52.126;-0.994;2022-09-12T02:14:11;18.60;;;13.50;;
62947;SDS011;51940;52.126;-0.994;2022-09-12T02:16:45;21.80;;;13.50;;
62947;SDS011;51940;52.126;-0.994;2022-09-12T02:19:17;20.70;;;13.30;;
62947;SDS011;51940;52.126;-0.994;2022-09-12T02:21:52;20.40;;;13.30;;
62947;SDS011;51940;52.126;-0.994;2022-09-12T02:24:20;19.90;;;13.10;;
62947;SDS011;51940;52.126;-0.994;2022-09-12T02:26:49;22.10;;;14.00;;
62947;SDS011;51940;52.126;-0.994;2022-09-12T02:29:20;19.90;;;13.10;;
62947;SDS011;51940;52.126;-0.994;2022-09-12T02:31:46;20.90;;;13.50;;
62947;SDS011;51940;52.126;-0.994;2022-09-12T02:39:52;18.50;;;13.50;;
62947;SDS011;51940;52.126;-0.994;2022-09-12T02:42:19;21.00;;;13.50;;
62947;SDS011;51940;52.126;-0.994;2022-09-12T02:44:45;18.50;;;13.20;;
62947;SDS011;51940;52.126;-0.994;2022-09-12T02:47:17;19.50;;;13.90;;
62947;SDS011;51940;52.126;-0.994;2022-09-12T02:49:47;23.20;;;14.20;;
62947;SDS011;51940;52.126;-0.994;2022-09-12T02:52:13;19.90;;;14.10;;
62947;SDS011;51940;52.126;-0.994;2022-09-12T02:54:39;20.60;;;14.00;;
62947;SDS011;51940;52.126;-0.994;2022-09-12T02:57:18;18.00;;;13.60;;
62947;SDS011;51940;52.126;-0.994;2022-09-12T02:59:46;20.90;;;13.60;;
62947;SDS011;51940;52.126;-0.994;2022-09-12T03:05:12;19.30;;;13.10;;
62947;SDS011;51940;52.126;-0.994;2022-09-12T03:13:37;19.40;;;13.40;;
62947;SDS011;51940;52.126;-0.994;2022-09-12T03:27:25;18.30;;;13.80;;
62947;SDS011;51940;52.126;-0.994;2022-09-12T03:30:01;21.00;;;14.30;;
62947;SDS011;51940;52.126;-0.994;2022-09-12T03:32:42;21.00;;;14.30;;
62947;SDS011;51940;52.126;-0.994;2022-09-12T03:35:10;22.70;;;13.50;;
62947;SDS011;51940;52.126;-0.994;2022-09-12T03:37:36;20.50;;;13.60;;
62947;SDS011;51940;52.126;-0.994;2022-09-12T03:40:02;20.70;;;13.70;;
62947;SDS011;51940;52.126;-0.994;2022-09-12T03:42:30;22.90;;;14.40;;
62947;SDS011;51940;52.126;-0.994;2022-09-12T03:44:55;22.60;;;14.20;;
62947;SDS011;51940;52.126;-0.994;2022-09-12T03:47:21;21.70;;;14.20;;
62947;SDS011;51940;52.126;-0.994;2022-09-12T03:49:46;21.00;;;14.70;;
62947;SDS011;51940;52.126;-0.994;2022-09-12T03:52:11;22.10;;;14.90;;
62947;SDS011;51940;52.126;-0.994;2022-09-12T03:54:37;18.80;;;13.30;;
62947;SDS011;51940;52.126;-0.994;2022-09-12T03:57:03;19.70;;;13.40;;
62947;SDS011;51940;52.126;-0.994;2022-09-12T03:59:29;21.60;;;14.80;;
62947;SDS011;51940;52.126;-0.994;2022-09-12T04:01:54;20.40;;;14.00;;
62947;SDS011;51940;52.126;-0.994;2022-09-12T04:04:19;21.00;;;14.00;;
62947;SDS011;51940;52.126;-0.994;2022-09-12T04:06:45;17.30;;;13.00;;
62947;SDS011;51940;52.126;-0.994;2022-09-12T04:09:10;20.70;;;13.70;;
62947;SDS011;51940;52.126;-0.994;2022-09-12T04:11:36;22.70;;;14.70;;
62947;SDS011;51940;52.126;-0.994;2022-09-12T04:14:01;23.80;;;14.70;;
62947;SDS011;51940;52.126;-0.994;2022-09-12T04:16:26;24.90;;;14.40;;
62947;SDS011;51940;52.126;-0.994;2022-09-12T04:18:52;23.80;;;14.50;;
62947;SDS011;51940;52.126;-0.994;2022-09-12T04:21:19;20.60;;;13.90;;
62947;SDS011;51940;52.126;-0.994;2022-09-12T04:23:46;20.10;;;13.60;;
62947;SDS011;51940;52.126;-0.994;2022-09-12T04:26:12;18.80;;;13.20;;
62947;SDS011;51940;52.126;-0.994;2022-09-12T04:28:39;19.70;;;13.50;;
62947;SDS011;51940;52.126;-0.994;2022-09-12T04:31:09;19.70;;;13.30;;
62947;SDS011;51940;52.126;-0.994;2022-09-12T04:33:38;20.00;;;13.10;;
62947;SDS011;51940;52.126;-0.994;2022-09-12T04:36:07;20.50;;;13.40;;
62947;SDS011;51940;52.126;-0.994;2022-09-12T04:38:43;21.60;;;13.30;;
62947;SDS011;51940;52.126;-0.994;2022-09-12T04:41:13;20.10;;;13.40;;
62947;SDS011;51940;52.126;-0.994;2022-09-12T04:43:43;20.60;;;13.60;;
62947;SDS011;51940;52.126;-0.994;2022-09-12T04:46:10;21.90;;;13.60;;
62947;SDS011;51940;52.126;-0.994;2022-09-12T04:48:37;20.00;;;13.40;;
62947;SDS011;51940;52.126;-0.994;2022-09-12T04:51:10;20.80;;;13.30;;
62947;SDS011;51940;52.126;-0.994;2022-09-12T04:53:39;18.20;;;13.00;;
62947;SDS011;51940;52.126;-0.994;2022-09-12T04:56:06;18.00;;;13.20;;
62947;SDS011;51940;52.126;-0.994;2022-09-12T04:58:34;20.50;;;13.50;;
62947;SDS011;51940;52.126;-0.994;2022-09-12T05:01:10;17.40;;;12.30;;
62947;SDS011;51940;52.126;-0.994;2022-09-12T05:03:37;18.20;;;12.60;;
62947;SDS011;51940;52.126;-0.994;2022-09-12T05:06:08;22.80;;;13.40;;
62947;SDS011;51940;52.126;-0.994;2022-09-12T05:08:39;23.30;;;14.20;;
62947;SDS011;51940;52.126;-0.994;2022-09-12T05:11:05;21.80;;;13.50;;
62947;SDS011;51940;52.126;-0.994;2022-09-12T05:13:34;22.50;;;13.70;;
62947;SDS011;51940;52.126;-0.994;2022-09-12T05:16:00;21.50;;;13.90;;
62947;SDS011;51940;52.126;-0.994;2022-09-12T05:18:27;19.70;;;13.50;;
62947;SDS011;51940;52.126;-0.994;2022-09-12T05:20:56;21.10;;;13.50;;
62947;SDS011;51940;52.126;-0.994;2022-09-12T05:23:24;21.60;;;13.60;;
62947;SDS011;51940;52.126;-0.994;2022-09-12T05:25:53;20.50;;;13.70;;
62947;SDS011;51940;52.126;-0.994;2022-09-12T05:28:20;22.00;;;13.90;;
62947;SDS011;51940;52.126;-0.994;2022-09-12T05:30:46;21.10;;;14.10;;
62947;SDS011;51940;52.126;-0.994;2022-09-12T05:33:12;18.10;;;13.50;;
62947;SDS011;51940;52.126;-0.994;2022-09-12T05:35:39;21.70;;;13.80;;
62947;SDS011;51940;52.126;-0.994;2022-09-12T05:38:06;20.10;;;13.50;;
62947;SDS011;51940;52.126;-0.994;2022-09-12T05:40:32;20.50;;;13.60;;
62947;SDS011;51940;52.126;-0.994;2022-09-12T05:42:58;21.90;;;13.90;;
62947;SDS011;51940;52.126;-0.994;2022-09-12T05:45:24;21.50;;;13.50;;
62947;SDS011;51940;52.126;-0.994;2022-09-12T05:47:51;21.90;;;14.20;;
62947;SDS011;51940;52.126;-0.994;2022-09-12T05:50:20;19.90;;;14.10;;
62947;SDS011;51940;52.126;-0.994;2022-09-12T05:52:46;18.20;;;13.40;;
62947;SDS011;51940;52.126;-0.994;2022-09-12T05:55:11;20.50;;;12.70;;
62947;SDS011;51940;52.126;-0.994;2022-09-12T05:57:37;20.90;;;13.00;;
62947;SDS011;51940;52.126;-0.994;2022-09-12T06:00:03;19.30;;;13.50;;
62947;SDS011;51940;52.126;-0.994;2022-09-12T06:02:31;21.70;;;13.40;;
62947;SDS011;51940;52.126;-0.994;2022-09-12T06:04:57;21.40;;;14.20;;
62947;SDS011;51940;52.126;-0.994;2022-09-12T06:07:22;24.70;;;14.90;;
62947;SDS011;51940;52.126;-0.994;2022-09-12T06:09:48;23.90;;;15.20;;
62947;SDS011;51940;52.126;-0.994;2022-09-12T06:12:13;21.10;;;14.90;;
62947;SDS011;51940;52.126;-0.994;2022-09-12T06:14:39;21.90;;;14.30;;
62947;SDS011;51940;52.126;-0.994;2022-09-12T06:17:04;23.10;;;15.00;;
62947;SDS011;51940;52.126;-0.994;2022-09-12T06:19:29;25.10;;;15.30;;
62947;SDS011;51940;52.126;-0.994;2022-09-12T06:21:55;26.60;;;15.60;;
62947;SDS011;51940;52.126;-0.994;2022-09-12T06:24:21;23.70;;;14.50;;
62947;SDS011;51940;52.126;-0.994;2022-09-12T06:26:47;22.20;;;15.30;;
62947;SDS011;51940;52.126;-0.994;2022-09-12T06:29:14;22.70;;;14.70;;
62947;SDS011;51940;52.126;-0.994;2022-09-12T06:31:40;21.10;;;14.20;;
62947;SDS011;51940;52.126;-0.994;2022-09-12T06:34:08;22.00;;;13.90;;
62947;SDS011;51940;52.126;-0.994;2022-09-12T06:36:36;21.70;;;14.40;;
62947;SDS011;51940;52.126;-0.994;2022-09-12T06:39:11;23.20;;;14.80;;
62947;SDS011;51940;52.126;-0.994;2022-09-12T06:41:39;20.40;;;14.10;;
62947;SDS011;51940;52.126;-0.994;2022-09-12T06:44:05;21.00;;;13.80;;
62947;SDS011;51940;52.126;-0.994;2022-09-12T06:46:31;23.30;;;14.40;;
62947;SDS011;51940;52.126;-0.994;2022-09-12T06:48:57;22.40;;;14.80;;
62947;SDS011;51940;52.126;-0.994;2022-09-12T06:51:26;25.40;;;15.60;;
62947;SDS011;51940;52.126;-0.994;2022-09-12T06:53:56;24.20;;;14.50;;
62947;SDS011;51940;52.126;-0.994;2022-09-12T06:56:22;23.30;;;14.20;;
62947;SDS011;51940;52.126;-0.994;2022-09-12T06:58:50;22.20;;;14.00;;
62947;SDS011;51940;52.126;-0.994;2022-09-12T07:01:18;25.00;;;14.20;;
62947;SDS011;51940;52.126;-0.994;2022-09-12T07:03:46;18.80;;;13.50;;
62947;SDS011;51940;52.126;-0.994;2022-09-12T07:06:14;18.50;;;12.40;;
62947;SDS011;51940;52.126;-0.994;2022-09-12T07:08:41;19.80;;;14.10;;
62947;SDS011;51940;52.126;-0.994;2022-09-12T07:11:14;18.00;;;13.30;;
62947;SDS011;51940;52.126;-0.994;2022-09-12T07:13:48;21.90;;;13.00;;
62947;SDS011;51940;52.126;-0.994;2022-09-12T07:16:15;22.70;;;13.30;;
62947;SDS011;51940;52.126;-0.994;2022-09-12T07:18:42;16.90;;;12.00;;
62947;SDS011;51940;52.126;-0.994;2022-09-12T07:21:11;18.50;;;12.00;;
62947;SDS011;51940;52.126;-0.994;2022-09-12T07:23:39;17.60;;;12.40;;
62947;SDS011;51940;52.126;-0.994;2022-09-12T07:26:06;16.90;;;11.80;;
62947;SDS011;51940;52.126;-0.994;2022-09-12T07:28:34;19.10;;;11.40;;
62947;SDS011;51940;52.126;-0.994;2022-09-12T07:31:06;16.10;;;11.60;;
62947;SDS011;51940;52.126;-0.994;2022-09-12T07:33:37;17.30;;;11.30;;
62947;SDS011;51940;52.126;-0.994;2022-09-12T07:36:05;16.40;;;11.20;;
62947;SDS011;51940;52.126;-0.994;2022-09-12T07:38:34;17.40;;;11.80;;
62947;SDS011;51940;52.126;-0.994;2022-09-12T07:41:00;14.70;;;11.50;;
62947;SDS011;51940;52.126;-0.994;2022-09-12T07:43:26;14.80;;;11.20;;
62947;SDS011;51940;52.126;-0.994;2022-09-12T07:45:55;17.30;;;11.20;;
62947;SDS011;51940;52.126;-0.994;2022-09-12T07:48:21;14.80;;;10.20;;
62947;SDS011;51940;52.126;-0.994;2022-09-12T07:50:47;13.90;;;10.20;;
62947;SDS011;51940;52.126;-0.994;2022-09-12T07:58:21;12.70;;;9.10;;
62947;SDS011;51940;52.126;-0.994;2022-09-12T08:00:48;16.10;;;10.20;;
62947;SDS011;51940;52.126;-0.994;2022-09-12T08:03:14;15.30;;;9.90;;
62947;SDS011;51940;52.126;-0.994;2022-09-12T08:05:41;15.60;;;10.00;;
62947;SDS011;51940;52.126;-0.994;2022-09-12T08:08:06;13.30;;;9.20;;
62947;SDS011;51940;52.126;-0.994;2022-09-12T08:10:32;13.40;;;9.40;;
62947;SDS011;51940;52.126;-0.994;2022-09-12T08:12:58;14.40;;;10.00;;
62947;SDS011;51940;52.126;-0.994;2022-09-12T08:15:23;12.80;;;9.40;;
62947;SDS011;51940;52.126;-0.994;2022-09-12T08:17:49;11.60;;;8.80;;
62947;SDS011;51940;52.126;-0.994;2022-09-12T08:20:14;13.10;;;8.70;;
62947;SDS011;51940;52.126;-0.994;2022-09-12T08:22:41;14.60;;;10.00;;
62947;SDS011;51940;52.126;-0.994;2022-09-12T08:25:07;12.30;;;9.30;;
62947;SDS011;51940;52.126;-0.994;2022-09-12T08:27:33;13.40;;;9.20;;
62947;SDS011;51940;52.126;-0.994;2022-09-12T08:29:58;14.20;;;9.70;;
62947;SDS011;51940;52.126;-0.994;2022-09-12T08:32:24;11.20;;;9.50;;
62947;SDS011;51940;52.126;-0.994;2022-09-12T08:34:50;15.50;;;10.10;;
62947;SDS011;51940;52.126;-0.994;2022-09-12T08:37:15;39.20;;;11.30;;
62947;SDS011;51940;52.126;-0.994;2022-09-12T08:39:40;13.20;;;9.30;;
62947;SDS011;51940;52.126;-0.994;2022-09-12T08:42:08;15.10;;;10.10;;
62947;SDS011;51940;52.126;-0.994;2022-09-12T08:47:39;14.80;;;10.20;;
62947;SDS011;51940;52.126;-0.994;2022-09-12T08:55:19;13.10;;;8.90;;
62947;SDS011;51940;52.126;-0.994;2022-09-12T08:58:16;10.80;;;7.50;;
62947;SDS011;51940;52.126;-0.994;2022-09-12T09:00:48;16.90;;;7.90;;
62947;SDS011;51940;52.126;-0.994;2022-09-12T09:17:59;8.30;;;4.50;;
62947;SDS011;51940;52.126;-0.994;2022-09-12T09:25:44;6.70;;;5.50;;
62947;SDS011;51940;52.126;-0.994;2022-09-12T09:28:10;6.30;;;5.10;;
62947;SDS011;51940;52.126;-0.994;2022-09-12T09:30:41;7.90;;;5.50;;
62947;SDS011;51940;52.126;-0.994;2022-09-12T09:33:09;6.70;;;5.50;;
62947;SDS011;51940;52.126;-0.994;2022-09-12T09:35:44;8.10;;;6.00;;
62947;SDS011;51940;52.126;-0.994;2022-09-12T09:38:26;6.90;;;4.90;;
62947;SDS011;51940;52.126;-0.994;2022-09-12T09:44:05;7.40;;;4.90;;
62947;SDS011;51940;52.126;-0.994;2022-09-12T09:46:31;6.30;;;4.10;;
62947;SDS011;51940;52.126;-0.994;2022-09-12T09:48:57;5.00;;;4.20;;
62947;SDS011;51940;52.126;-0.994;2022-09-12T09:51:33;5.90;;;4.20;;
62947;SDS011;51940;52.126;-0.994;2022-09-12T09:54:21;6.00;;;4.10;;
62947;SDS011;51940;52.126;-0.994;2022-09-12T09:56:50;5.60;;;4.30;;
62947;SDS011;51940;52.126;-0.994;2022-09-12T09:59:24;5.50;;;3.90;;
62947;SDS011;51940;52.126;-0.994;2022-09-12T10:02:18;4.40;;;3.50;;
62947;SDS011;51940;52.126;-0.994;2022-09-12T10:04:54;5.60;;;3.40;;
62947;SDS011;51940;52.126;-0.994;2022-09-12T10:07:21;7.40;;;4.30;;
62947;SDS011;51940;52.126;-0.994;2022-09-12T10:12:41;5.60;;;3.20;;
62947;SDS011;51940;52.126;-0.994;2022-09-12T10:17:45;3.90;;;2.50;;
62947;SDS011;51940;52.126;-0.994;2022-09-12T10:22:58;7.60;;;2.80;;
62947;SDS011;51940;52.126;-0.994;2022-09-12T10:25:26;5.40;;;2.80;;
62947;SDS011;51940;52.126;-0.994;2022-09-12T10:27:56;6.20;;;3.50;;
62947;SDS011;51940;52.126;-0.994;2022-09-12T10:30:24;6.20;;;2.70;;
62947;SDS011;51940;52.126;-0.994;2022-09-12T10:32:53;4.50;;;2.50;;
62947;SDS011;51940;52.126;-0.994;2022-09-12T10:35:27;25.40;;;8.40;;
62947;SDS011;51940;52.126;-0.994;2022-09-12T10:40:27;5.20;;;2.80;;
62947;SDS011;51940;52.126;-0.994;2022-09-12T10:42:59;6.10;;;2.20;;
62947;SDS011;51940;52.126;-0.994;2022-09-12T10:46:55;6.10;;;2.80;;
62947;SDS011;51940;52.126;-0.994;2022-09-12T10:49:26;3.20;;;2.30;;
62947;SDS011;51940;52.126;-0.994;2022-09-12T10:51:55;4.70;;;2.80;;
62947;SDS011;51940;52.126;-0.994;2022-09-12T10:54:24;4.10;;;3.00;;
62947;SDS011;51940;52.126;-0.994;2022-09-12T10:57:03;3.80;;;2.80;;
62947;SDS011;51940;52.126;-0.994;2022-09-12T11:00:29;4.50;;;2.90;;
62947;SDS011;51940;52.126;-0.994;2022-09-12T11:16:33;5.60;;;3.30;;
62947;SDS011;51940;52.126;-0.994;2022-09-12T11:30:08;6.00;;;3.60;;
62947;SDS011;51940;52.126;-0.994;2022-09-12T11:35:25;5.40;;;3.60;;
62947;SDS011;51940;52.126;-0.994;2022-09-12T11:40:28;4.00;;;2.60;;
62947;SDS011;51940;52.126;-0.994;2022-09-12T11:43:00;4.00;;;2.30;;
62947;SDS011;51940;52.126;-0.994;2022-09-12T11:45:37;4.50;;;2.20;;
62947;SDS011;51940;52.126;-0.994;2022-09-12T11:48:09;5.00;;;2.40;;
62947;SDS011;51940;52.126;-0.994;2022-09-12T11:50:39;3.70;;;2.70;;
62947;SDS011;51940;52.126;-0.994;2022-09-12T11:53:14;4.00;;;2.40;;
62947;SDS011;51940;52.126;-0.994;2022-09-12T11:55:49;5.60;;;3.10;;
62947;SDS011;51940;52.126;-0.994;2022-09-12T11:58:21;3.90;;;2.80;;
62947;SDS011;51940;52.126;-0.994;2022-09-12T12:00:51;3.80;;;2.50;;
62947;SDS011;51940;52.126;-0.994;2022-09-12T12:03:27;3.80;;;2.40;;
62947;SDS011;51940;52.126;-0.994;2022-09-12T12:08:43;4.00;;;2.20;;
62947;SDS011;51940;52.126;-0.994;2022-09-12T12:11:11;2.00;;;1.60;;
62947;SDS011;51940;52.126;-0.994;2022-09-12T12:14:11;8.00;;;2.20;;
62947;SDS011;51940;52.126;-0.994;2022-09-12T12:19:55;4.40;;;1.90;;
62947;SDS011;51940;52.126;-0.994;2022-09-12T12:22:07;3.80;;;1.90;;
62947;SDS011;51940;52.126;-0.994;2022-09-12T12:27:44;4.00;;;1.90;;
62947;SDS011;51940;52.126;-0.994;2022-09-12T12:32:59;3.00;;;1.90;;
62947;SDS011;51940;52.126;-0.994;2022-09-12T12:38:00;2.80;;;1.80;;
62947;SDS011;51940;52.126;-0.994;2022-09-12T12:40:27;2.20;;;1.50;;
62947;SDS011;51940;52.126;-0.994;2022-09-12T12:48:07;2.60;;;1.40;;
62947;SDS011;51940;52.126;-0.994;2022-09-12T12:50:39;1.80;;;1.30;;
62947;SDS011;51940;52.126;-0.994;2022-09-12T12:55:48;2.10;;;1.50;;
62947;SDS011;51940;52.126;-0.994;2022-09-12T13:06:31;4.80;;;1.70;;
62947;SDS011;51940;52.126;-0.994;2022-09-12T13:09:03;1.40;;;1.20;;
62947;SDS011;51940;52.126;-0.994;2022-09-12T13:17:24;2.80;;;1.60;;
62947;SDS011;51940;52.126;-0.994;2022-09-12T13:20:01;2.60;;;1.70;;
62947;SDS011;51940;52.126;-0.994;2022-09-12T13:22:48;3.20;;;1.30;;
62947;SDS011;51940;52.126;-0.994;2022-09-12T13:25:20;2.80;;;1.30;;
62947;SDS011;51940;52.126;-0.994;2022-09-12T13:30:35;1.80;;;1.20;;
62947;SDS011;51940;52.126;-0.994;2022-09-12T13:33:08;3.70;;;1.60;;
62947;SDS011;51940;52.126;-0.994;2022-09-12T13:41:49;6.90;;;1.40;;
62947;SDS011;51940;52.126;-0.994;2022-09-12T13:44:29;5.50;;;1.50;;
62947;SDS011;51940;52.126;-0.994;2022-09-12T13:47:03;2.00;;;1.50;;
62947;SDS011;51940;52.126;-0.994;2022-09-12T13:49:33;2.50;;;1.30;;
62947;SDS011;51940;52.126;-0.994;2022-09-12T13:52:05;2.00;;;1.80;;
62947;SDS011;51940;52.126;-0.994;2022-09-12T13:54:44;3.40;;;1.90;;
62947;SDS011;51940;52.126;-0.994;2022-09-12T14:00:06;2.60;;;2.10;;
62947;SDS011;51940;52.126;-0.994;2022-09-12T14:02:40;3.30;;;2.80;;
62947;SDS011;51940;52.126;-0.994;2022-09-12T14:05:12;4.30;;;2.80;;
62947;SDS011;51940;52.126;-0.994;2022-09-12T14:12:58;2.60;;;2.40;;
62947;SDS011;51940;52.126;-0.994;2022-09-12T14:15:28;2.50;;;2.10;;
62947;SDS011;51940;52.126;-0.994;2022-09-12T14:17:56;3.10;;;2.10;;
62947;SDS011;51940;52.126;-0.994;2022-09-12T14:20:27;3.00;;;2.00;;
62947;SDS011;51940;52.126;-0.994;2022-09-12T14:23:00;1.90;;;1.70;;
62947;SDS011;51940;52.126;-0.994;2022-09-12T14:25:37;3.30;;;1.90;;
62947;SDS011;51940;52.126;-0.994;2022-09-12T14:28:05;4.10;;;2.00;;
62947;SDS011;51940;52.126;-0.994;2022-09-12T14:30:37;4.90;;;1.90;;
62947;SDS011;51940;52.126;-0.994;2022-09-12T14:35:34;3.20;;;1.80;;
62947;SDS011;51940;52.126;-0.994;2022-09-12T14:38:05;3.30;;;1.50;;
62947;SDS011;51940;52.126;-0.994;2022-09-12T14:40:39;2.10;;;1.90;;
62947;SDS011;51940;52.126;-0.994;2022-09-12T14:43:15;1.90;;;1.40;;
62947;SDS011;51940;52.126;-0.994;2022-09-12T14:45:49;1.90;;;1.50;;
62947;SDS011;51940;52.126;-0.994;2022-09-12T14:48:36;1.50;;;1.30;;
62947;SDS011;51940;52.126;-0.994;2022-09-12T14:57:01;2.40;;;1.60;;
62947;SDS011;51940;52.126;-0.994;2022-09-12T14:59:28;1.60;;;1.50;;
62947;SDS011;51940;52.126;-0.994;2022-09-12T15:04:41;2.30;;;1.40;;
62947;SDS011;51940;52.126;-0.994;2022-09-12T15:07:14;2.10;;;1.50;;
62947;SDS011;51940;52.126;-0.994;2022-09-12T15:09:56;1.60;;;1.50;;
62947;SDS011;51940;52.126;-0.994;2022-09-12T15:12:23;1.90;;;1.50;;
62947;SDS011;51940;52.126;-0.994;2022-09-12T15:14:49;3.30;;;1.60;;
62947;SDS011;51940;52.126;-0.994;2022-09-12T15:17:14;2.20;;;1.60;;
62947;SDS011;51940;52.126;-0.994;2022-09-12T15:19:39;2.30;;;1.70;;
62947;SDS011;51940;52.126;-0.994;2022-09-12T15:22:05;3.00;;;1.70;;
62947;SDS011;51940;52.126;-0.994;2022-09-12T15:24:30;2.30;;;1.70;;
62947;SDS011;51940;52.126;-0.994;2022-09-12T15:26:56;3.40;;;1.70;;
62947;SDS011;51940;52.126;-0.994;2022-09-12T15:29:22;2.80;;;1.70;;
62947;SDS011;51940;52.126;-0.994;2022-09-12T15:31:47;3.80;;;1.50;;
62947;SDS011;51940;52.126;-0.994;2022-09-12T15:34:15;1.90;;;1.50;;
62947;SDS011;51940;52.126;-0.994;2022-09-12T15:36:40;2.70;;;1.40;;
62947;SDS011;51940;52.126;-0.994;2022-09-12T15:39:07;2.30;;;1.50;;
62947;SDS011;51940;52.126;-0.994;2022-09-12T15:41:34;1.50;;;1.40;;
62947;SDS011;51940;52.126;-0.994;2022-09-12T15:44:10;3.60;;;1.80;;
62947;SDS011;51940;52.126;-0.994;2022-09-12T15:46:36;2.70;;;1.60;;
62947;SDS011;51940;52.126;-0.994;2022-09-12T15:49:02;1.70;;;1.60;;
62947;SDS011;51940;52.126;-0.994;2022-09-12T15:51:27;4.00;;;1.60;;
62947;SDS011;51940;52.126;-0.994;2022-09-12T15:53:53;2.60;;;1.50;;
62947;SDS011;51940;52.126;-0.994;2022-09-12T15:56:19;2.90;;;1.50;;
62947;SDS011;51940;52.126;-0.994;2022-09-12T15:58:47;3.00;;;1.50;;
62947;SDS011;51940;52.126;-0.994;2022-09-12T16:01:14;3.40;;;1.70;;
62947;SDS011;51940;52.126;-0.994;2022-09-12T16:03:44;2.50;;;1.50;;
62947;SDS011;51940;52.126;-0.994;2022-09-12T16:06:11;2.60;;;1.60;;
62947;SDS011;51940;52.126;-0.994;2022-09-12T16:08:39;1.80;;;1.40;;
62947;SDS011;51940;52.126;-0.994;2022-09-12T16:11:13;2.60;;;1.80;;
62947;SDS011;51940;52.126;-0.994;2022-09-12T16:13:53;1.90;;;1.70;;
62947;SDS011;51940;52.126;-0.994;2022-09-12T16:16:19;2.90;;;1.70;;
62947;SDS011;51940;52.126;-0.994;2022-09-12T16:18:45;3.80;;;2.40;;
62947;SDS011;51940;52.126;-0.994;2022-09-12T16:21:10;2.40;;;1.90;;
62947;SDS011;51940;52.126;-0.994;2022-09-12T16:23:36;2.80;;;1.70;;
62947;SDS011;51940;52.126;-0.994;2022-09-12T16:26:04;2.40;;;1.80;;
62947;SDS011;51940;52.126;-0.994;2022-09-12T16:28:30;3.60;;;2.20;;
62947;SDS011;51940;52.126;-0.994;2022-09-12T16:30:59;3.10;;;2.00;;
62947;SDS011;51940;52.126;-0.994;2022-09-12T16:33:26;3.60;;;2.30;;
62947;SDS011;51940;52.126;-0.994;2022-09-12T16:35:52;2.70;;;2.40;;
62947;SDS011;51940;52.126;-0.994;2022-09-12T16:38:20;4.00;;;2.20;;
62947;SDS011;51940;52.126;-0.994;2022-09-12T16:40:46;3.20;;;2.50;;
62947;SDS011;51940;52.126;-0.994;2022-09-12T16:43:12;2.90;;;2.30;;
62947;SDS011;51940;52.126;-0.994;2022-09-12T16:45:42;4.30;;;2.50;;
62947;SDS011;51940;52.126;-0.994;2022-09-12T16:48:08;5.40;;;2.60;;
62947;SDS011;51940;52.126;-0.994;2022-09-12T16:50:33;3.40;;;2.50;;
62947;SDS011;51940;52.126;-0.994;2022-09-12T16:52:59;4.40;;;2.70;;
62947;SDS011;51940;52.126;-0.994;2022-09-12T16:55:24;4.10;;;2.80;;
62947;SDS011;51940;52.126;-0.994;2022-09-12T16:57:52;3.60;;;2.70;;
62947;SDS011;51940;52.126;-0.994;2022-09-12T17:00:18;3.30;;;2.80;;
62947;SDS011;51940;52.126;-0.994;2022-09-12T17:02:44;4.50;;;3.00;;
62947;SDS011;51940;52.126;-0.994;2022-09-12T17:05:11;3.20;;;2.80;;
62947;SDS011;51940;52.126;-0.994;2022-09-12T17:07:40;3.70;;;3.10;;
62947;SDS011;51940;52.126;-0.994;2022-09-12T17:10:06;5.70;;;2.90;;
62947;SDS011;51940;52.126;-0.994;2022-09-12T17:12:32;3.50;;;2.70;;
62947;SDS011;51940;52.126;-0.994;2022-09-12T17:14:58;4.10;;;2.90;;
62947;SDS011;51940;52.126;-0.994;2022-09-12T17:17:23;4.30;;;2.80;;
62947;SDS011;51940;52.126;-0.994;2022-09-12T17:19:49;5.10;;;3.00;;
62947;SDS011;51940;52.126;-0.994;2022-09-12T17:22:15;3.90;;;2.50;;
62947;SDS011;51940;52.126;-0.994;2022-09-12T17:24:40;4.70;;;2.80;;
62947;SDS011;51940;52.126;-0.994;2022-09-12T17:27:08;3.50;;;2.80;;
62947;SDS011;51940;52.126;-0.994;2022-09-12T17:29:34;3.80;;;3.10;;
62947;SDS011;51940;52.126;-0.994;2022-09-12T17:32:01;3.70;;;2.70;;
62947;SDS011;51940;52.126;-0.994;2022-09-12T17:34:27;3.30;;;2.90;;
62947;SDS011;51940;52.126;-0.994;2022-09-12T17:36:52;3.00;;;2.60;;
62947;SDS011;51940;52.126;-0.994;2022-09-12T17:39:18;5.00;;;2.70;;
62947;SDS011;51940;52.126;-0.994;2022-09-12T17:41:43;3.90;;;3.10;;
62947;SDS011;51940;52.126;-0.994;2022-09-12T17:44:10;3.60;;;2.90;;
62947;SDS011;51940;52.126;-0.994;2022-09-12T17:46:39;4.80;;;3.00;;
62947;SDS011;51940;52.126;-0.994;2022-09-12T17:49:06;3.20;;;2.80;;
62947;SDS011;51940;52.126;-0.994;2022-09-12T17:51:34;6.30;;;3.00;;